createdAt,value
2019-04-06T00:03:55.707Z,4.75
2019-04-06T00:06:26.720Z,4.75
2019-04-06T00:08:57.715Z,4.69
2019-04-06T00:11:28.554Z,4.66
2019-04-06T00:13:59.395Z,4.68
2019-04-06T00:16:30.194Z,4.71
2019-04-06T00:19:00.914Z,4.79
2019-04-06T00:21:31.679Z,4.73
2019-04-06T00:24:02.819Z,4.94
2019-04-06T00:26:33.781Z,4.95
2019-04-06T00:29:04.775Z,5.03
2019-04-06T00:31:51.068Z,5.08
2019-04-06T00:34:22.096Z,5.11
2019-04-06T00:36:53.315Z,5.20
2019-04-06T00:39:24.430Z,5.30
2019-04-06T00:41:55.539Z,5.38
2019-04-06T00:44:26.324Z,5.36
2019-04-06T00:46:57.139Z,5.20
2019-04-06T00:49:27.142Z,5.24
2019-04-06T00:51:57.999Z,5.22
2019-04-06T00:54:28.785Z,5.34
2019-04-06T00:56:59.667Z,5.30
2019-04-06T00:59:30.575Z,5.46
2019-04-06T01:02:01.317Z,5.42
2019-04-06T01:07:23.159Z,5.58
2019-04-06T01:09:54.747Z,5.57
2019-04-06T01:12:26.026Z,5.52
2019-04-06T01:14:56.799Z,5.46
2019-04-06T01:17:27.946Z,5.42
2019-04-06T01:19:59.052Z,5.35
2019-04-06T01:22:30.307Z,5.09
2019-04-06T01:25:01.112Z,5.21
2019-04-06T01:27:31.880Z,5.10
2019-04-06T01:30:02.759Z,5.15
2019-04-06T01:32:33.998Z,5.16
2019-04-06T01:35:04.967Z,5.30
2019-04-06T01:37:35.783Z,5.32
2019-04-06T01:40:07.534Z,5.33
2019-04-06T01:42:38.558Z,5.39
2019-04-06T01:45:09.781Z,5.49
2019-04-06T01:47:40.638Z,5.49
2019-04-06T01:50:11.584Z,5.46
2019-04-06T01:52:42.429Z,5.50
2019-04-06T01:55:13.519Z,5.41
2019-04-06T01:57:44.309Z,5.35
2019-04-06T02:00:15.863Z,5.35
2019-04-06T02:02:49.250Z,5.29
2019-04-06T02:05:20.584Z,5.21
2019-04-06T02:07:51.445Z,5.06
2019-04-06T02:10:22.326Z,5.21
2019-04-06T02:12:53.342Z,5.16
2019-04-06T02:15:24.414Z,5.18
2019-04-06T02:17:55.279Z,5.12
2019-04-06T02:20:26.301Z,5.24
2019-04-06T02:22:57.088Z,5.21
2019-04-06T02:25:27.865Z,5.21
2019-04-06T02:27:58.652Z,5.26
2019-04-06T02:30:33.084Z,5.22
2019-04-06T02:33:21.773Z,5.26
2019-04-06T02:36:18.106Z,5.20
2019-04-06T02:39:00.061Z,5.17
2019-04-06T02:42:02.147Z,5.16
2019-04-06T02:44:34.409Z,5.01
2019-04-06T02:47:05.641Z,5.02
2019-04-06T02:49:36.903Z,4.88
2019-04-06T02:52:07.997Z,4.83
2019-04-06T02:54:39.122Z,4.90
2019-04-06T02:57:09.936Z,4.91
2019-04-06T02:59:40.712Z,4.89
2019-04-06T03:02:11.549Z,4.88
2019-04-06T03:04:43.394Z,4.83
2019-04-06T03:07:15.785Z,4.75
2019-04-06T03:09:46.865Z,4.66
2019-04-06T03:12:17.745Z,4.65
2019-04-06T03:14:49.096Z,4.54
2019-04-06T03:17:19.857Z,4.67
2019-04-06T03:19:51.109Z,4.72
2019-04-06T03:22:22.162Z,4.78
2019-04-06T03:24:52.930Z,4.83
2019-04-06T03:27:24.167Z,4.83
2019-04-06T03:29:58.499Z,4.92
2019-04-06T03:32:28.021Z,4.98
2019-04-06T03:34:59.053Z,4.97
2019-04-06T03:37:29.918Z,4.97
2019-04-06T03:40:01.410Z,4.97
2019-04-06T03:42:32.233Z,5.01
2019-04-06T03:45:02.992Z,4.98
2019-04-06T03:47:34.045Z,4.89
2019-04-06T03:50:05.262Z,4.96
2019-04-06T03:52:37.123Z,4.97
2019-04-06T03:55:08.403Z,4.98
2019-04-06T03:57:39.718Z,4.92
2019-04-06T04:00:10.988Z,4.85
2019-04-06T04:02:42.177Z,4.81
2019-04-06T04:05:13.025Z,4.69
2019-04-06T04:07:44.045Z,4.70
2019-04-06T04:10:29.113Z,4.65
2019-04-06T04:13:00.098Z,4.68
2019-04-06T04:15:31.181Z,4.73
2019-04-06T04:18:02.099Z,4.78
2019-04-06T04:20:33.086Z,4.65
2019-04-06T04:23:04.504Z,4.73
2019-04-06T04:25:35.828Z,4.70
2019-04-06T04:28:06.729Z,4.78
2019-04-06T04:30:37.824Z,4.79
2019-04-06T04:33:09.163Z,4.80
2019-04-06T04:35:41.112Z,4.88
2019-04-06T04:38:13.425Z,4.83
2019-04-06T04:40:44.364Z,4.88
2019-04-06T04:43:15.172Z,4.89
2019-04-06T04:45:45.954Z,4.86
2019-04-06T04:48:17.156Z,4.84
2019-04-06T04:50:47.986Z,4.77
2019-04-06T04:53:19.011Z,4.66
2019-04-06T04:55:50.087Z,4.62
2019-04-06T04:58:21.125Z,4.51
2019-04-06T05:00:52.004Z,4.56
2019-04-06T05:03:22.773Z,4.50
2019-04-06T05:05:53.555Z,4.49
2019-04-06T05:08:24.343Z,4.38
2019-04-06T05:10:55.594Z,4.34
2019-04-06T05:13:26.458Z,4.38
2019-04-06T05:16:22.654Z,4.49
2019-04-06T05:18:53.763Z,4.46
2019-04-06T05:21:24.785Z,4.53
2019-04-06T05:23:55.570Z,4.55
2019-04-06T05:26:36.803Z,4.48
2019-04-06T05:28:59.072Z,4.53
2019-04-06T05:31:29.856Z,4.57
2019-04-06T05:34:00.881Z,4.61
2019-04-06T05:36:31.658Z,4.52
2019-04-06T05:39:02.859Z,4.49
2019-04-06T05:41:33.617Z,4.27
2019-04-06T05:44:04.693Z,4.20
2019-04-06T05:46:35.472Z,4.15
2019-04-06T05:49:06.474Z,4.09
2019-04-06T05:51:37.409Z,4.00
2019-04-06T05:54:08.199Z,4.12
2019-04-06T05:56:39.272Z,4.07
2019-04-06T05:59:10.921Z,4.08
2019-04-06T06:01:41.647Z,4.08
2019-04-06T06:04:13.868Z,4.13
2019-04-06T06:06:44.591Z,4.25
2019-04-06T06:09:15.658Z,4.27
2019-04-06T06:11:46.715Z,4.37
2019-04-06T06:14:17.935Z,4.45
2019-04-06T06:16:48.948Z,4.44
2019-04-06T06:19:20.208Z,4.51
2019-04-06T06:21:51.530Z,4.59
2019-04-06T06:24:22.389Z,4.74
2019-04-06T06:26:53.634Z,4.90
2019-04-06T06:29:24.642Z,5.04
2019-04-06T06:31:55.438Z,5.23
2019-04-06T06:34:26.703Z,5.59
2019-04-06T06:36:57.764Z,5.79
2019-04-06T06:39:28.607Z,5.98
2019-04-06T06:41:59.947Z,6.16
2019-04-06T06:44:30.808Z,6.29
2019-04-06T06:47:02.077Z,6.56
2019-04-06T06:49:33.131Z,6.67
2019-04-06T06:52:03.960Z,6.85
2019-04-06T06:54:34.747Z,7.02
2019-04-06T06:57:05.919Z,7.05
2019-04-06T06:59:36.694Z,7.05
2019-04-06T07:02:07.537Z,7.21
2019-04-06T07:04:39.240Z,7.23
2019-04-06T07:07:29.583Z,7.38
2019-04-06T07:10:25.556Z,7.59
2019-04-06T07:13:21.775Z,7.79
2019-04-06T07:16:17.885Z,7.97
2019-04-06T07:18:49.226Z,8.14
2019-04-06T07:21:20.520Z,8.30
2019-04-06T07:23:51.867Z,8.42
2019-04-06T07:26:22.960Z,8.39
2019-04-06T07:28:53.743Z,8.45
2019-04-06T07:31:24.867Z,8.42
2019-04-06T07:33:56.136Z,8.33
2019-04-06T07:36:27.389Z,8.47
2019-04-06T07:38:58.328Z,8.52
2019-04-06T07:41:29.159Z,8.52
2019-04-06T07:44:01.410Z,8.53
2019-04-06T07:46:32.269Z,8.61
2019-04-06T07:49:08.831Z,8.65
2019-04-06T07:51:35.821Z,8.75
2019-04-06T07:54:06.617Z,8.80
2019-04-06T07:56:37.477Z,9.02
2019-04-06T07:59:08.788Z,9.21
2019-04-06T08:01:40.389Z,9.38
2019-04-06T08:04:11.448Z,9.70
2019-04-06T08:06:42.737Z,9.89
2019-04-06T08:09:14.506Z,9.85
2019-04-06T08:11:45.615Z,10.15
2019-04-06T08:14:16.645Z,10.30
2019-04-06T08:16:47.743Z,10.32
2019-04-06T08:19:18.520Z,10.72
2019-04-06T08:21:49.869Z,10.34
2019-04-06T08:24:20.991Z,10.26
2019-04-06T08:26:51.784Z,10.17
2019-04-06T08:29:22.906Z,10.24
2019-04-06T08:31:53.937Z,10.50
2019-04-06T08:34:25.044Z,10.69
2019-04-06T08:36:55.998Z,10.67
2019-04-06T08:39:26.861Z,10.78
2019-04-06T08:41:57.946Z,11.07
2019-04-06T08:44:29.001Z,11.26
2019-04-06T08:47:19.117Z,11.34
2019-04-06T08:49:49.904Z,11.62
2019-04-06T08:52:20.798Z,11.82
2019-04-06T08:55:12.757Z,12.11
2019-04-06T08:57:43.690Z,11.72
2019-04-06T09:00:14.731Z,12.00
2019-04-06T09:02:45.628Z,11.99
2019-04-06T09:05:16.843Z,12.07
2019-04-06T09:07:47.798Z,12.06
2019-04-06T09:10:19.041Z,12.06
2019-04-06T09:12:49.903Z,12.04
2019-04-06T09:15:20.686Z,11.99
2019-04-06T09:17:51.795Z,12.05
2019-04-06T09:20:22.781Z,12.14
2019-04-06T09:22:54.299Z,11.81
2019-04-06T09:25:25.086Z,11.87
2019-04-06T09:27:56.225Z,11.80
2019-04-06T09:30:28.694Z,12.05
2019-04-06T09:32:59.491Z,12.32
2019-04-06T09:35:30.895Z,12.33
2019-04-06T09:38:03.708Z,12.78
2019-04-06T09:40:34.818Z,12.93
2019-04-06T09:43:05.695Z,13.03
2019-04-06T09:45:53.048Z,13.47
2019-04-06T09:48:31.615Z,13.50
2019-04-06T09:51:21.653Z,13.73
2019-04-06T09:54:14.843Z,13.80
2019-04-06T09:56:55.920Z,14.12
2019-04-06T09:59:48.514Z,13.96
2019-04-06T10:02:28.390Z,14.05
2019-04-06T10:05:14.474Z,14.11
2019-04-06T10:07:55.084Z,14.01
2019-04-06T10:10:35.165Z,14.26
2019-04-06T10:13:44.483Z,14.58
2019-04-06T10:16:41.878Z,14.51
2019-04-06T10:19:21.462Z,14.56
2019-04-06T10:22:15.352Z,14.93
2019-04-06T10:25:00.971Z,14.83
2019-04-06T10:27:51.005Z,15.08
2019-04-06T10:30:35.869Z,15.06
2019-04-06T10:33:24.193Z,15.46
2019-04-06T10:36:06.690Z,15.29
2019-04-06T10:38:56.710Z,15.24
2019-04-06T10:41:45.242Z,15.39
2019-04-06T10:44:44.395Z,15.28
2019-04-06T10:47:21.087Z,15.27
2019-04-06T10:53:39.699Z,15.23
2019-04-06T10:56:21.702Z,15.20
2019-04-06T10:59:16.247Z,14.97
2019-04-06T11:02:00.753Z,15.29
2019-04-06T11:04:36.308Z,15.63
2019-04-06T11:07:26.317Z,15.65
2019-04-06T11:10:16.701Z,15.60
2019-04-06T11:12:56.585Z,15.44
2019-04-06T11:15:43.460Z,16.07
2019-04-06T11:18:33.232Z,16.20
2019-04-06T11:21:26.067Z,15.96
2019-04-06T11:24:24.331Z,15.88
2019-04-06T11:27:17.368Z,15.97
2019-04-06T11:30:12.842Z,15.83
2019-04-06T11:32:58.092Z,16.12
2019-04-06T11:35:47.925Z,15.97
2019-04-06T11:38:49.643Z,15.91
2019-04-06T11:41:38.163Z,15.87
2019-04-06T11:44:33.977Z,15.96
2019-04-06T11:47:23.119Z,16.10
2019-04-06T11:50:30.859Z,15.85
2019-04-06T11:53:19.537Z,16.08
2019-04-06T11:55:59.235Z,15.83
2019-04-06T11:58:55.141Z,15.95
2019-04-06T12:01:51.480Z,16.27
2019-04-06T12:04:44.204Z,16.34
2019-04-06T12:07:25.189Z,16.73
2019-04-06T12:10:10.627Z,16.59
2019-04-06T12:13:03.719Z,16.61
2019-04-06T12:15:52.602Z,16.04
2019-04-06T12:19:01.060Z,16.35
2019-04-06T12:22:08.660Z,16.33
2019-04-06T12:28:06.754Z,16.57
2019-04-06T12:31:05.846Z,16.25
2019-04-06T12:33:54.395Z,16.30
2019-04-06T12:36:29.768Z,16.19
2019-04-06T12:39:11.605Z,16.42
2019-04-06T12:41:59.534Z,16.32
2019-04-06T12:44:52.939Z,15.99
2019-04-06T12:47:44.322Z,15.85
2019-04-06T12:50:34.258Z,16.01
2019-04-06T12:53:22.996Z,15.76
2019-04-06T12:56:00.515Z,15.75
2019-04-06T12:58:56.469Z,15.78
2019-04-06T13:01:44.766Z,15.85
2019-04-06T13:04:32.607Z,15.86
2019-04-06T13:07:17.589Z,15.79
2019-04-06T13:10:16.191Z,15.78
2019-04-06T13:13:08.868Z,15.85
2019-04-06T13:15:57.252Z,16.06
2019-04-06T13:18:47.282Z,16.14
2019-04-06T13:21:35.988Z,16.07
2019-04-06T13:24:11.755Z,15.94
2019-04-06T13:26:52.362Z,15.83
2019-04-06T13:29:44.991Z,15.74
2019-04-06T13:32:30.780Z,15.66
2019-04-06T13:35:16.361Z,15.67
2019-04-06T13:38:04.178Z,15.85
2019-04-06T13:40:52.769Z,15.92
2019-04-06T13:43:42.765Z,15.83
2019-04-06T13:46:48.028Z,16.00
2019-04-06T13:49:43.834Z,15.82
2019-04-06T13:52:30.013Z,16.10
2019-04-06T13:55:19.803Z,16.35
2019-04-06T13:58:07.927Z,16.32
2019-04-06T14:01:13.739Z,16.60
2019-04-06T14:03:55.651Z,16.76
2019-04-06T14:06:57.886Z,16.59
2019-04-06T14:09:40.306Z,16.41
2019-04-06T14:12:39.477Z,16.54
2019-04-06T14:15:29.613Z,16.58
2019-04-06T14:18:29.034Z,16.72
2019-04-06T14:21:27.759Z,16.72
2019-04-06T14:24:10.112Z,16.59
2019-04-06T14:27:18.843Z,16.55
2019-04-06T14:30:09.179Z,16.85
2019-04-06T14:33:06.696Z,16.96
2019-04-06T14:36:05.656Z,16.94
2019-04-06T14:38:46.723Z,17.08
2019-04-06T14:41:35.335Z,17.24
2019-04-06T14:44:31.133Z,17.43
2019-04-06T14:47:28.211Z,17.69
2019-04-06T14:50:30.004Z,17.70
2019-04-06T14:53:14.018Z,18.23
2019-04-06T14:55:53.566Z,18.33
2019-04-06T14:58:42.668Z,18.28
2019-04-06T15:01:41.509Z,18.15
2019-04-06T15:04:32.615Z,17.82
2019-04-06T15:07:12.315Z,17.56
2019-04-06T15:10:07.243Z,17.36
2019-04-06T15:12:50.514Z,17.31
2019-04-06T15:15:40.648Z,17.37
2019-04-06T15:18:36.268Z,17.39
2019-04-06T15:21:15.598Z,17.33
2019-04-06T15:24:03.839Z,17.20
2019-04-06T15:26:59.949Z,17.25
2019-04-06T15:29:36.116Z,17.21
2019-04-06T15:32:26.212Z,17.13
2019-04-06T15:35:11.215Z,17.21
2019-04-06T15:37:59.517Z,17.15
2019-04-06T15:40:52.590Z,16.92
2019-04-06T15:43:40.799Z,17.13
2019-04-06T15:46:37.626Z,17.34
2019-04-06T15:49:25.339Z,17.12
2019-04-06T15:52:18.245Z,17.22
2019-04-06T15:55:06.243Z,17.20
2019-04-06T15:57:51.535Z,17.21
2019-04-06T16:00:34.906Z,17.37
2019-04-06T16:03:19.129Z,17.33
2019-04-06T16:06:04.256Z,17.26
2019-04-06T16:08:58.370Z,17.26
2019-04-06T16:11:43.479Z,17.38
2019-04-06T16:14:33.810Z,17.40
2019-04-06T16:17:24.053Z,17.40
2019-04-06T16:20:03.054Z,17.43
2019-04-06T16:22:48.631Z,17.26
2019-04-06T16:25:37.477Z,17.35
2019-04-06T16:28:13.829Z,17.33
2019-04-06T16:31:05.313Z,17.18
2019-04-06T16:33:42.759Z,17.00
2019-04-06T16:36:23.629Z,16.98
2019-04-06T16:39:29.226Z,16.72
2019-04-06T16:42:17.700Z,16.90
2019-04-06T16:45:07.844Z,16.58
2019-04-06T16:47:56.653Z,16.51
2019-04-06T16:50:42.631Z,16.44
2019-04-06T16:53:42.039Z,16.10
2019-04-06T16:56:31.838Z,15.95
2019-04-06T16:59:25.649Z,16.19
2019-04-06T17:02:25.338Z,15.95
2019-04-06T17:05:05.888Z,15.53
2019-04-06T17:07:48.794Z,15.16
2019-04-06T17:10:45.455Z,14.92
2019-04-06T17:13:28.671Z,14.70
2019-04-06T17:16:10.435Z,14.55
2019-04-06T17:18:54.369Z,14.26
2019-04-06T17:21:42.830Z,14.08
2019-04-06T17:24:27.658Z,13.91
2019-04-06T17:27:14.264Z,13.71
2019-04-06T17:29:55.349Z,13.53
2019-04-06T17:33:18.584Z,13.40
2019-04-06T17:36:15.924Z,13.25
2019-04-06T17:39:04.427Z,13.06
2019-04-06T17:42:01.211Z,12.91
2019-04-06T17:45:07.025Z,12.80
2019-04-06T17:48:00.079Z,12.66
2019-04-06T17:51:02.574Z,12.51
2019-04-06T17:53:41.153Z,12.38
2019-04-06T17:56:30.742Z,12.27
2019-04-06T17:59:11.038Z,12.24
2019-04-06T18:02:04.873Z,12.10
2019-04-06T18:04:51.849Z,12.10
2019-04-06T18:07:40.270Z,12.03
2019-04-06T18:10:19.555Z,11.96
2019-04-06T18:13:10.174Z,11.91
2019-04-06T18:15:41.668Z,11.89
2019-04-06T18:18:12.968Z,11.80
2019-04-06T18:20:44.910Z,11.70
2019-04-06T18:23:16.455Z,11.58
2019-04-06T18:25:47.299Z,11.48
2019-04-06T18:28:18.394Z,11.34
2019-04-06T18:30:55.878Z,11.29
2019-04-06T18:33:27.089Z,11.22
2019-04-06T18:35:58.346Z,11.11
2019-04-06T18:38:33.651Z,11.01
2019-04-06T18:41:04.804Z,10.93
2019-04-06T18:43:35.578Z,10.85
2019-04-06T18:46:07.028Z,10.78
2019-04-06T18:48:38.274Z,10.73
2019-04-06T18:51:09.110Z,10.70
2019-04-06T18:53:40.130Z,10.61
2019-04-06T18:56:11.154Z,10.55
2019-04-06T18:58:42.478Z,10.48
2019-04-06T19:01:13.407Z,10.39
2019-04-06T19:03:45.114Z,10.33
2019-04-06T19:06:16.899Z,10.33
2019-04-06T19:08:48.167Z,10.25
2019-04-06T19:11:19.218Z,10.21
2019-04-06T19:13:50.056Z,10.18
2019-04-06T19:16:21.144Z,10.16
2019-04-06T19:18:52.096Z,10.13
2019-04-06T19:21:22.992Z,10.18
2019-04-06T19:23:53.876Z,10.14
2019-04-06T19:26:24.681Z,10.10
2019-04-06T19:28:55.501Z,10.14
2019-04-06T19:31:27.288Z,10.18
2019-04-06T19:33:58.823Z,10.26
2019-04-06T19:36:29.961Z,10.38
2019-04-06T19:39:01.300Z,10.44
2019-04-06T19:41:33.940Z,10.47
2019-04-06T19:44:04.807Z,10.53
2019-04-06T19:46:36.338Z,10.60
2019-04-06T19:49:07.544Z,10.66
2019-04-06T19:51:38.561Z,10.64
2019-04-06T19:54:09.439Z,10.60
2019-04-06T19:56:41.407Z,10.58
2019-04-06T19:59:13.556Z,10.51
2019-04-06T20:01:44.531Z,10.47
2019-04-06T20:04:15.414Z,10.41
2019-04-06T20:06:46.686Z,10.35
2019-04-06T20:09:17.663Z,10.30
2019-04-06T20:11:49.026Z,10.29
2019-04-06T20:14:19.891Z,10.28
2019-04-06T20:16:51.737Z,10.25
2019-04-06T20:19:22.865Z,10.20
2019-04-06T20:21:54.890Z,10.19
2019-04-06T20:24:26.264Z,10.21
2019-04-06T20:26:57.712Z,10.24
2019-04-06T20:29:29.547Z,10.28
2019-04-06T20:32:00.507Z,10.31
2019-04-06T20:34:31.551Z,10.37
2019-04-06T20:37:02.595Z,10.40
2019-04-06T20:39:34.266Z,10.46
2019-04-06T20:42:05.271Z,10.50
2019-04-06T20:44:37.095Z,10.55
2019-04-06T20:47:07.859Z,10.58
2019-04-06T20:49:38.650Z,10.65
2019-04-06T20:52:09.649Z,10.70
2019-04-06T20:54:40.410Z,10.74
2019-04-06T20:57:11.842Z,10.78
2019-04-06T20:59:42.788Z,10.81
2019-04-06T21:02:13.889Z,10.88
2019-04-06T21:04:44.629Z,10.91
2019-04-06T21:07:16.014Z,10.97
2019-04-06T21:09:47.246Z,11.06
2019-04-06T21:12:18.240Z,11.13
2019-04-06T21:14:49.057Z,11.16
2019-04-06T21:17:20.221Z,11.15
2019-04-06T21:19:51.626Z,11.19
2019-04-06T21:22:22.936Z,11.19
2019-04-06T21:24:54.011Z,11.20
2019-04-06T21:27:25.111Z,11.21
2019-04-06T21:29:56.192Z,11.21
2019-04-06T21:32:27.132Z,11.24
2019-04-06T21:34:58.698Z,11.24
2019-04-06T21:37:30.048Z,11.22
2019-04-06T21:40:01.047Z,11.19
2019-04-06T21:42:33.262Z,11.17
2019-04-06T21:45:04.992Z,11.13
2019-04-06T21:47:36.109Z,11.13
2019-04-06T21:50:07.095Z,11.12
2019-04-06T21:52:38.662Z,11.11
2019-04-06T21:55:13.711Z,11.14
2019-04-06T21:57:45.578Z,11.32
2019-04-06T22:00:41.754Z,11.50
2019-04-06T22:03:13.544Z,11.65
2019-04-06T22:05:44.633Z,11.64
2019-04-06T22:08:15.626Z,11.60
2019-04-06T22:10:47.712Z,11.52
2019-04-06T22:13:18.739Z,11.39
2019-04-06T22:15:50.687Z,11.25
2019-04-06T22:18:22.101Z,11.19
2019-04-06T22:20:52.959Z,11.16
2019-04-06T22:23:24.198Z,11.04
2019-04-06T22:25:55.339Z,10.91
2019-04-06T22:28:26.744Z,10.84
2019-04-06T22:30:57.664Z,10.89
2019-04-06T22:33:28.926Z,10.80
2019-04-06T22:35:59.714Z,10.64
2019-04-06T22:38:30.870Z,10.56
2019-04-06T22:41:01.701Z,10.47
2019-04-06T22:43:32.822Z,10.41
2019-04-06T22:46:04.397Z,10.30
2019-04-06T22:48:35.801Z,10.27
2019-04-06T22:51:06.878Z,10.13
2019-04-06T22:53:38.503Z,9.99
2019-04-06T22:56:09.987Z,9.90
2019-04-06T22:58:41.228Z,9.76
2019-04-06T23:01:13.750Z,9.72
2019-04-06T23:04:07.593Z,9.62
2019-04-06T23:06:49.761Z,9.70
2019-04-06T23:09:21.253Z,9.67
2019-04-06T23:11:52.598Z,9.70
2019-04-06T23:14:23.507Z,9.96
2019-04-06T23:16:55.083Z,10.10
2019-04-06T23:19:26.266Z,10.42
2019-04-06T23:21:57.562Z,10.72
2019-04-06T23:24:28.982Z,10.73
2019-04-06T23:27:00.007Z,10.63
2019-04-06T23:29:31.258Z,10.71
2019-04-06T23:32:02.717Z,10.78
2019-04-06T23:34:34.000Z,10.90
2019-04-06T23:37:04.944Z,11.09
2019-04-06T23:39:35.736Z,11.36
2019-04-06T23:42:06.909Z,11.43
2019-04-06T23:44:37.869Z,11.42
2019-04-06T23:47:08.886Z,11.32
2019-04-06T23:49:40.699Z,11.42
2019-04-06T23:52:12.050Z,11.62
2019-04-06T23:54:43.627Z,11.61
2019-04-06T23:57:14.366Z,11.40
2019-04-06T23:59:45.377Z,11.27
